createdAt,value
2023-05-13T00:01:50.283Z,76.49
2023-05-13T00:11:52.982Z,76.63
2023-05-13T00:21:57.304Z,76.67
2023-05-13T00:32:00.342Z,77.64
2023-05-13T00:42:05.876Z,78.56
2023-05-13T00:52:08.813Z,79.43
2023-05-13T01:02:20.553Z,79.56
2023-05-13T01:12:30.624Z,79.14
2023-05-13T01:22:34.760Z,79.33
2023-05-13T01:32:39.160Z,79.57
2023-05-13T01:42:44.096Z,80.27
2023-05-13T01:52:46.770Z,80.94
2023-05-13T02:02:51.002Z,81.96
2023-05-13T02:12:53.762Z,83.40
2023-05-13T02:22:57.742Z,83.25
2023-05-13T02:33:02.032Z,83.29
2023-05-13T02:43:06.150Z,83.88
2023-05-13T02:53:09.084Z,84.68
2023-05-13T03:03:13.270Z,85.79
2023-05-13T03:13:16.186Z,87.06
2023-05-13T03:23:20.151Z,87.27
2023-05-13T03:33:22.837Z,87.50
2023-05-13T03:43:26.861Z,87.67
2023-05-13T03:53:29.559Z,87.66
2023-05-13T04:03:34.248Z,87.53
2023-05-13T04:13:37.508Z,87.90
2023-05-13T04:23:42.027Z,88.07
2023-05-13T04:33:45.365Z,88.35
2023-05-13T04:43:49.308Z,88.25
2023-05-13T04:53:51.977Z,88.55
2023-05-13T05:03:56.060Z,88.54
2023-05-13T05:13:58.981Z,87.93
2023-05-13T05:24:03.042Z,87.15
2023-05-13T05:34:05.920Z,86.74
2023-05-13T05:44:13.371Z,86.44
2023-05-13T05:54:16.064Z,86.65
2023-05-13T06:04:20.095Z,85.93
2023-05-13T06:14:22.774Z,84.70
2023-05-13T06:24:26.912Z,84.03
2023-05-13T06:34:29.597Z,83.35
2023-05-13T06:44:33.654Z,82.46
2023-05-13T06:54:36.413Z,80.79
2023-05-13T07:04:40.421Z,79.91
2023-05-13T07:14:45.096Z,78.93
2023-05-13T07:24:49.117Z,77.75
2023-05-13T07:34:51.747Z,77.29
2023-05-13T07:44:55.782Z,75.34
2023-05-13T07:54:58.431Z,73.25
2023-05-13T08:05:02.511Z,71.93
2023-05-13T08:15:06.299Z,72.53
2023-05-13T08:25:12.118Z,71.63
2023-05-13T08:35:14.945Z,69.38
2023-05-13T08:45:22.161Z,68.58
2023-05-13T08:55:25.166Z,66.56
2023-05-13T09:05:29.373Z,66.27
2023-05-13T09:15:32.228Z,64.13
2023-05-13T09:25:38.153Z,59.92
2023-05-13T09:35:42.331Z,60.69
2023-05-13T09:45:46.464Z,54.30
2023-05-13T09:55:50.214Z,54.36
2023-05-13T10:05:55.430Z,51.78
2023-05-13T10:15:59.103Z,48.06
2023-05-13T10:26:03.874Z,46.33
2023-05-13T10:36:25.961Z,43.27
2023-05-13T10:46:30.028Z,44.02
2023-05-13T10:56:32.778Z,39.46
2023-05-13T11:06:38.002Z,41.34
2023-05-13T11:16:46.921Z,41.55
2023-05-13T11:26:52.960Z,38.07
2023-05-13T11:36:58.877Z,21.34
2023-05-13T11:47:05.771Z,19.60
2023-05-13T11:57:16.434Z,17.90
2023-05-13T12:07:22.903Z,14.56
2023-05-13T12:17:26.355Z,16.10
2023-05-13T12:27:30.404Z,15.45
2023-05-13T12:37:33.072Z,18.76
2023-05-13T12:47:50.370Z,20.40
2023-05-13T12:57:57.219Z,14.33
2023-05-13T13:08:02.276Z,17.99
2023-05-13T13:18:05.144Z,16.01
2023-05-13T13:28:09.129Z,16.67
2023-05-13T13:38:11.850Z,18.92
2023-05-13T13:48:15.837Z,21.36
2023-05-13T13:58:18.498Z,21.05
2023-05-13T14:08:22.551Z,22.72
2023-05-13T14:18:25.227Z,23.79
2023-05-13T14:28:29.234Z,24.95
2023-05-13T14:38:32.107Z,25.35
2023-05-13T14:48:36.149Z,24.59
2023-05-13T14:58:38.775Z,28.15
2023-05-13T15:08:42.799Z,28.83
2023-05-13T15:18:45.468Z,29.81
2023-05-13T15:28:49.492Z,29.61
2023-05-13T15:38:52.129Z,28.97
2023-05-13T15:48:56.145Z,29.54
2023-05-13T15:58:58.765Z,30.73
2023-05-13T16:09:04.374Z,31.09
2023-05-13T16:19:08.637Z,31.45
2023-05-13T16:29:12.869Z,31.84
2023-05-13T16:39:15.461Z,31.75
2023-05-13T16:49:19.614Z,33.92
2023-05-13T16:59:22.955Z,35.02
2023-05-13T17:09:26.998Z,36.45
2023-05-13T17:19:30.028Z,36.37
2023-05-13T17:29:34.057Z,37.88
2023-05-13T17:39:36.720Z,37.78
2023-05-13T17:49:40.676Z,37.98
2023-05-13T17:59:43.688Z,37.72
2023-05-13T18:09:49.915Z,37.41
2023-05-13T18:19:52.698Z,42.34
2023-05-13T18:29:56.687Z,43.49
2023-05-13T18:39:59.658Z,45.32
2023-05-13T18:50:03.709Z,46.51
2023-05-13T19:00:07.945Z,48.34
2023-05-13T19:10:12.384Z,51.33
2023-05-13T19:20:15.723Z,53.08
2023-05-13T19:30:19.798Z,54.43
2023-05-13T19:40:22.726Z,56.62
2023-05-13T19:50:26.862Z,59.12
2023-05-13T20:00:29.676Z,60.63
2023-05-13T20:10:35.119Z,61.85
2023-05-13T20:20:37.970Z,64.37
2023-05-13T20:30:43.044Z,67.20
2023-05-13T20:40:45.671Z,68.44
2023-05-13T20:50:49.649Z,68.56
2023-05-13T21:00:52.431Z,70.12
2023-05-13T21:10:57.218Z,71.27
2023-05-13T21:21:00.043Z,72.09
2023-05-13T21:31:04.306Z,72.80
2023-05-13T21:41:07.075Z,73.77
2023-05-13T21:51:11.134Z,74.61
2023-05-13T22:01:13.967Z,75.58
2023-05-13T22:11:18.763Z,77.19
2023-05-13T22:21:21.618Z,78.65
2023-05-13T22:31:25.705Z,79.22
2023-05-13T22:41:28.436Z,80.40
2023-05-13T22:51:32.474Z,80.72
2023-05-13T23:01:35.200Z,82.65
2023-05-13T23:11:39.421Z,83.20
2023-05-13T23:21:42.069Z,84.19
2023-05-13T23:31:46.064Z,84.69
2023-05-13T23:41:49.355Z,85.42
2023-05-13T23:51:53.594Z,85.13
